sensor_id;sensor_type;location;lat;lon;timestamp;P1;P2;P0
64861;PMS5003;62652;42.274;-71.436;2023-07-28T00:00:00;13.17;12.37;8.40
64861;PMS5003;62652;42.274;-71.436;2023-07-28T00:01:00;13.93;12.37;7.77
64861;PMS5003;62652;42.274;-71.436;2023-07-28T00:02:00;11.57;11.33;7.00
64861;PMS5003;62652;42.274;-71.436;2023-07-28T00:03:00;10.73;9.87;7.20
64861;PMS5003;62652;42.274;-71.436;2023-07-28T00:04:00;10.93;10.87;7.17
64861;PMS5003;62652;42.274;-71.436;2023-07-28T00:05:00;10.63;10.63;6.87
64861;PMS5003;62652;42.274;-71.436;2023-07-28T00:06:00;11.57;10.87;7.60
64861;PMS5003;62652;42.274;-71.436;2023-07-28T00:07:00;12.57;12.20;7.90
64861;PMS5003;62652;42.274;-71.436;2023-07-28T00:08:00;12.83;12.13;7.60
64861;PMS5003;62652;42.274;-71.436;2023-07-28T00:09:00;10.03;10.03;7.13
64861;PMS5003;62652;42.274;-71.436;2023-07-28T00:10:00;11.67;11.23;7.50
64861;PMS5003;62652;42.274;-71.436;2023-07-28T00:11:00;12.63;11.43;7.33
64861;PMS5003;62652;42.274;-71.436;2023-07-28T00:12:00;11.00;10.30;7.10
64861;PMS5003;62652;42.274;-71.436;2023-07-28T00:13:00;10.27;9.67;6.77
64861;PMS5003;62652;42.274;-71.436;2023-07-28T00:14:00;9.70;9.60;6.80
64861;PMS5003;62652;42.274;-71.436;2023-07-28T00:15:00;9.00;9.00;6.27
64861;PMS5003;62652;42.274;-71.436;2023-07-28T00:16:00;9.83;9.70;7.77
64861;PMS5003;62652;42.274;-71.436;2023-07-28T00:17:00;11.37;10.93;7.33
64861;PMS5003;62652;42.274;-71.436;2023-07-28T00:18:00;11.30;10.63;6.57
64861;PMS5003;62652;42.274;-71.436;2023-07-28T00:19:00;11.93;11.00;7.83
64861;PMS5003;62652;42.274;-71.436;2023-07-28T00:20:00;10.77;9.00;6.03
64861;PMS5003;62652;42.274;-71.436;2023-07-28T00:21:00;11.37;10.57;7.93
64861;PMS5003;62652;42.274;-71.436;2023-07-28T00:22:00;9.33;9.33;6.13
64861;PMS5003;62652;42.274;-71.436;2023-07-28T00:23:00;11.23;10.80;7.10
64861;PMS5003;62652;42.274;-71.436;2023-07-28T00:24:00;10.97;10.43;6.57
64861;PMS5003;62652;42.274;-71.436;2023-07-28T00:25:00;9.80;9.80;6.07
64861;PMS5003;62652;42.274;-71.436;2023-07-28T00:26:00;12.47;10.77;6.93
64861;PMS5003;62652;42.274;-71.436;2023-07-28T00:27:00;9.70;9.70;6.40
64861;PMS5003;62652;42.274;-71.436;2023-07-28T00:28:00;10.23;9.37;7.23
64861;PMS5003;62652;42.274;-71.436;2023-07-28T00:29:00;8.53;8.53;6.20
64861;PMS5003;62652;42.274;-71.436;2023-07-28T00:30:00;10.33;10.33;5.77
64861;PMS5003;62652;42.274;-71.436;2023-07-28T00:31:00;9.43;9.20;6.23
64861;PMS5003;62652;42.274;-71.436;2023-07-28T00:32:00;10.70;9.60;6.13
64861;PMS5003;62652;42.274;-71.436;2023-07-28T00:33:00;8.97;8.97;5.43
64861;PMS5003;62652;42.274;-71.436;2023-07-28T00:34:01;8.70;8.07;5.80
64861;PMS5003;62652;42.274;-71.436;2023-07-28T00:35:00;11.97;10.57;6.97
64861;PMS5003;62652;42.274;-71.436;2023-07-28T00:36:00;9.17;9.07;5.83
64861;PMS5003;62652;42.274;-71.436;2023-07-28T00:37:00;9.20;8.97;5.97
64861;PMS5003;62652;42.274;-71.436;2023-07-28T00:38:01;9.43;9.23;5.40
64861;PMS5003;62652;42.274;-71.436;2023-07-28T00:39:00;9.87;9.77;6.03
64861;PMS5003;62652;42.274;-71.436;2023-07-28T00:40:00;9.20;8.23;5.30
64861;PMS5003;62652;42.274;-71.436;2023-07-28T00:41:00;10.13;9.83;5.53
64861;PMS5003;62652;42.274;-71.436;2023-07-28T00:42:00;8.47;7.30;5.53
64861;PMS5003;62652;42.274;-71.436;2023-07-28T00:43:01;6.63;6.63;5.10
64861;PMS5003;62652;42.274;-71.436;2023-07-28T00:44:00;10.80;10.33;5.53
64861;PMS5003;62652;42.274;-71.436;2023-07-28T00:45:00;7.50;7.40;4.33
64861;PMS5003;62652;42.274;-71.436;2023-07-28T00:46:00;5.87;5.50;2.93
64861;PMS5003;62652;42.274;-71.436;2023-07-28T00:47:00;7.97;7.97;4.20
64861;PMS5003;62652;42.274;-71.436;2023-07-28T00:48:00;7.93;7.07;4.93
64861;PMS5003;62652;42.274;-71.436;2023-07-28T00:49:00;5.70;5.70;3.10
64861;PMS5003;62652;42.274;-71.436;2023-07-28T00:50:00;7.23;7.23;3.97
64861;PMS5003;62652;42.274;-71.436;2023-07-28T00:51:00;5.80;5.70;3.60
64861;PMS5003;62652;42.274;-71.436;2023-07-28T00:52:00;5.23;5.13;3.97
64861;PMS5003;62652;42.274;-71.436;2023-07-28T00:53:00;8.30;8.30;5.20
64861;PMS5003;62652;42.274;-71.436;2023-07-28T00:54:01;7.20;6.97;4.27
64861;PMS5003;62652;42.274;-71.436;2023-07-28T00:55:00;7.30;7.20;3.63
64861;PMS5003;62652;42.274;-71.436;2023-07-28T00:56:00;5.77;5.57;3.77
64861;PMS5003;62652;42.274;-71.436;2023-07-28T00:57:01;5.63;5.63;3.10
64861;PMS5003;62652;42.274;-71.436;2023-07-28T00:58:00;5.07;4.87;2.50
64861;PMS5003;62652;42.274;-71.436;2023-07-28T00:59:00;7.77;7.50;5.23
64861;PMS5003;62652;42.274;-71.436;2023-07-28T01:00:00;4.63;4.03;2.80
64861;PMS5003;62652;42.274;-71.436;2023-07-28T01:01:00;5.00;5.00;3.43
64861;PMS5003;62652;42.274;-71.436;2023-07-28T01:02:00;4.63;4.53;3.00
64861;PMS5003;62652;42.274;-71.436;2023-07-28T01:03:00;5.13;5.03;3.87
64861;PMS5003;62652;42.274;-71.436;2023-07-28T01:04:00;4.27;4.07;2.87
64861;PMS5003;62652;42.274;-71.436;2023-07-28T01:05:00;4.47;3.97;2.80
64861;PMS5003;62652;42.274;-71.436;2023-07-28T01:06:04;5.17;4.63;2.77
64861;PMS5003;62652;42.274;-71.436;2023-07-28T01:07:02;4.63;4.63;2.63
64861;PMS5003;62652;42.274;-71.436;2023-07-28T01:08:02;4.40;4.27;2.63
64861;PMS5003;62652;42.274;-71.436;2023-07-28T01:09:01;4.87;4.70;2.77
64861;PMS5003;62652;42.274;-71.436;2023-07-28T01:10:01;5.00;4.90;3.00
64861;PMS5003;62652;42.274;-71.436;2023-07-28T01:11:00;5.10;4.90;3.07
64861;PMS5003;62652;42.274;-71.436;2023-07-28T01:12:01;4.43;4.43;3.00
64861;PMS5003;62652;42.274;-71.436;2023-07-28T01:13:00;4.07;3.87;2.33
64861;PMS5003;62652;42.274;-71.436;2023-07-28T01:14:00;5.07;4.97;2.87
64861;PMS5003;62652;42.274;-71.436;2023-07-28T01:15:00;5.67;4.93;3.80
64861;PMS5003;62652;42.274;-71.436;2023-07-28T01:16:00;4.63;4.53;2.50
64861;PMS5003;62652;42.274;-71.436;2023-07-28T01:17:00;5.73;4.90;3.47
64861;PMS5003;62652;42.274;-71.436;2023-07-28T01:18:00;5.80;5.27;2.90
64861;PMS5003;62652;42.274;-71.436;2023-07-28T01:19:00;5.27;5.27;3.43
64861;PMS5003;62652;42.274;-71.436;2023-07-28T01:20:00;6.13;5.17;3.00
64861;PMS5003;62652;42.274;-71.436;2023-07-28T01:21:00;5.27;4.70;2.80
64861;PMS5003;62652;42.274;-71.436;2023-07-28T01:22:04;7.20;7.03;3.37
64861;PMS5003;62652;42.274;-71.436;2023-07-28T01:23:05;4.23;4.23;3.00
64861;PMS5003;62652;42.274;-71.436;2023-07-28T01:24:04;4.17;4.17;3.00
64861;PMS5003;62652;42.274;-71.436;2023-07-28T01:25:02;6.00;5.67;2.97
64861;PMS5003;62652;42.274;-71.436;2023-07-28T01:26:02;5.57;4.93;3.83
64861;PMS5003;62652;42.274;-71.436;2023-07-28T01:27:00;3.83;3.83;2.57
64861;PMS5003;62652;42.274;-71.436;2023-07-28T01:28:00;5.13;4.90;2.63
64861;PMS5003;62652;42.274;-71.436;2023-07-28T01:29:00;5.37;4.20;3.00
64861;PMS5003;62652;42.274;-71.436;2023-07-28T01:30:00;6.23;5.67;3.77
64861;PMS5003;62652;42.274;-71.436;2023-07-28T01:31:01;5.27;5.23;2.83
64861;PMS5003;62652;42.274;-71.436;2023-07-28T01:32:00;5.13;5.10;3.03
64861;PMS5003;62652;42.274;-71.436;2023-07-28T01:33:00;6.33;5.77;3.63
64861;PMS5003;62652;42.274;-71.436;2023-07-28T01:34:00;5.60;4.80;3.40
64861;PMS5003;62652;42.274;-71.436;2023-07-28T01:35:00;5.13;4.60;2.90
64861;PMS5003;62652;42.274;-71.436;2023-07-28T01:36:00;6.67;6.40;3.90
64861;PMS5003;62652;42.274;-71.436;2023-07-28T01:37:00;5.23;5.23;3.20
64861;PMS5003;62652;42.274;-71.436;2023-07-28T01:38:00;4.90;4.90;3.20
64861;PMS5003;62652;42.274;-71.436;2023-07-28T01:39:00;5.60;5.60;4.00
64861;PMS5003;62652;42.274;-71.436;2023-07-28T01:40:01;6.83;6.07;3.00
64861;PMS5003;62652;42.274;-71.436;2023-07-28T01:41:00;4.90;4.90;3.20
64861;PMS5003;62652;42.274;-71.436;2023-07-28T01:42:00;4.57;4.17;2.67
64861;PMS5003;62652;42.274;-71.436;2023-07-28T01:43:00;5.57;5.40;3.40
64861;PMS5003;62652;42.274;-71.436;2023-07-28T01:44:00;5.93;5.40;3.10
64861;PMS5003;62652;42.274;-71.436;2023-07-28T01:45:00;7.00;5.07;3.83
64861;PMS5003;62652;42.274;-71.436;2023-07-28T01:46:00;5.03;5.03;3.03
64861;PMS5003;62652;42.274;-71.436;2023-07-28T01:47:00;7.00;6.90;4.70
64861;PMS5003;62652;42.274;-71.436;2023-07-28T01:48:00;5.73;5.73;3.77
64861;PMS5003;62652;42.274;-71.436;2023-07-28T01:49:00;4.40;4.40;2.80
64861;PMS5003;62652;42.274;-71.436;2023-07-28T01:50:00;6.33;6.33;3.27
64861;PMS5003;62652;42.274;-71.436;2023-07-28T01:51:00;4.87;4.87;2.87
64861;PMS5003;62652;42.274;-71.436;2023-07-28T01:52:00;5.27;4.83;3.40
64861;PMS5003;62652;42.274;-71.436;2023-07-28T01:53:00;6.27;6.27;4.27
64861;PMS5003;62652;42.274;-71.436;2023-07-28T01:54:00;4.27;4.27;2.63
64861;PMS5003;62652;42.274;-71.436;2023-07-28T01:55:00;5.63;4.90;3.37
64861;PMS5003;62652;42.274;-71.436;2023-07-28T01:56:00;6.23;6.23;3.60
64861;PMS5003;62652;42.274;-71.436;2023-07-28T01:57:00;7.30;6.53;3.87
64861;PMS5003;62652;42.274;-71.436;2023-07-28T01:58:01;4.17;4.17;2.60
64861;PMS5003;62652;42.274;-71.436;2023-07-28T01:59:00;5.47;5.27;3.27
64861;PMS5003;62652;42.274;-71.436;2023-07-28T02:00:01;5.17;5.17;3.07
64861;PMS5003;62652;42.274;-71.436;2023-07-28T02:01:00;6.20;6.20;4.63
64861;PMS5003;62652;42.274;-71.436;2023-07-28T02:02:00;6.83;6.77;4.00
64861;PMS5003;62652;42.274;-71.436;2023-07-28T02:03:00;6.73;6.50;4.43
64861;PMS5003;62652;42.274;-71.436;2023-07-28T02:04:00;6.53;6.53;3.83
64861;PMS5003;62652;42.274;-71.436;2023-07-28T02:05:00;5.90;5.90;3.43
64861;PMS5003;62652;42.274;-71.436;2023-07-28T02:06:00;6.63;6.13;4.10
64861;PMS5003;62652;42.274;-71.436;2023-07-28T02:07:00;6.10;6.10;3.90
64861;PMS5003;62652;42.274;-71.436;2023-07-28T02:08:00;6.27;5.27;4.20
64861;PMS5003;62652;42.274;-71.436;2023-07-28T02:09:00;7.63;7.17;4.13
64861;PMS5003;62652;42.274;-71.436;2023-07-28T02:10:00;5.63;5.63;3.47
64861;PMS5003;62652;42.274;-71.436;2023-07-28T02:11:00;6.77;6.53;3.67
64861;PMS5003;62652;42.274;-71.436;2023-07-28T02:12:00;8.13;7.77;4.70
64861;PMS5003;62652;42.274;-71.436;2023-07-28T02:13:00;5.93;5.93;3.63
64861;PMS5003;62652;42.274;-71.436;2023-07-28T02:14:00;6.87;6.87;3.87
64861;PMS5003;62652;42.274;-71.436;2023-07-28T02:15:00;7.33;7.23;4.10
64861;PMS5003;62652;42.274;-71.436;2023-07-28T02:16:00;6.73;5.93;4.40
64861;PMS5003;62652;42.274;-71.436;2023-07-28T02:17:00;6.67;6.67;5.30
64861;PMS5003;62652;42.274;-71.436;2023-07-28T02:18:00;6.90;6.80;4.87
64861;PMS5003;62652;42.274;-71.436;2023-07-28T02:19:00;7.60;7.20;4.17
64861;PMS5003;62652;42.274;-71.436;2023-07-28T02:20:00;5.83;5.83;3.83
64861;PMS5003;62652;42.274;-71.436;2023-07-28T02:21:00;5.00;5.00;3.80
64861;PMS5003;62652;42.274;-71.436;2023-07-28T02:22:00;6.73;6.47;4.10
64861;PMS5003;62652;42.274;-71.436;2023-07-28T02:23:00;7.43;7.43;4.93
64861;PMS5003;62652;42.274;-71.436;2023-07-28T02:24:00;6.93;6.57;4.57
64861;PMS5003;62652;42.274;-71.436;2023-07-28T02:25:00;7.17;6.97;4.80
64861;PMS5003;62652;42.274;-71.436;2023-07-28T02:26:00;7.03;6.77;4.30
64861;PMS5003;62652;42.274;-71.436;2023-07-28T02:27:00;6.50;5.80;2.87
64861;PMS5003;62652;42.274;-71.436;2023-07-28T02:28:00;7.90;7.33;5.43
64861;PMS5003;62652;42.274;-71.436;2023-07-28T02:29:00;7.87;7.50;4.87
64861;PMS5003;62652;42.274;-71.436;2023-07-28T02:30:00;7.50;7.00;3.70
64861;PMS5003;62652;42.274;-71.436;2023-07-28T02:31:00;7.63;6.97;4.73
64861;PMS5003;62652;42.274;-71.436;2023-07-28T02:32:00;5.93;5.60;3.97
64861;PMS5003;62652;42.274;-71.436;2023-07-28T02:33:01;6.27;6.27;4.47
64861;PMS5003;62652;42.274;-71.436;2023-07-28T02:34:00;7.53;7.07;4.80
64861;PMS5003;62652;42.274;-71.436;2023-07-28T02:35:00;6.67;6.67;4.93
64861;PMS5003;62652;42.274;-71.436;2023-07-28T02:36:00;9.27;8.57;5.03
64861;PMS5003;62652;42.274;-71.436;2023-07-28T02:37:00;7.67;7.60;4.83
64861;PMS5003;62652;42.274;-71.436;2023-07-28T02:38:00;8.23;6.77;4.60
64861;PMS5003;62652;42.274;-71.436;2023-07-28T02:39:00;7.47;7.47;4.37
64861;PMS5003;62652;42.274;-71.436;2023-07-28T02:40:00;5.73;5.73;3.60
64861;PMS5003;62652;42.274;-71.436;2023-07-28T02:41:00;7.77;7.23;4.47
64861;PMS5003;62652;42.274;-71.436;2023-07-28T02:42:00;7.27;7.27;4.50
64861;PMS5003;62652;42.274;-71.436;2023-07-28T02:43:00;8.43;7.77;4.67
64861;PMS5003;62652;42.274;-71.436;2023-07-28T02:44:00;7.73;7.73;5.83
64861;PMS5003;62652;42.274;-71.436;2023-07-28T02:45:00;7.77;7.77;4.40
64861;PMS5003;62652;42.274;-71.436;2023-07-28T02:46:00;7.90;7.63;4.50
64861;PMS5003;62652;42.274;-71.436;2023-07-28T02:47:00;7.53;7.53;4.63
64861;PMS5003;62652;42.274;-71.436;2023-07-28T02:48:00;7.07;6.83;4.50
64861;PMS5003;62652;42.274;-71.436;2023-07-28T02:49:00;6.30;5.93;3.77
64861;PMS5003;62652;42.274;-71.436;2023-07-28T02:50:00;7.40;6.73;4.23
64861;PMS5003;62652;42.274;-71.436;2023-07-28T02:51:00;6.73;6.73;4.67
64861;PMS5003;62652;42.274;-71.436;2023-07-28T02:52:00;6.87;6.30;4.00
64861;PMS5003;62652;42.274;-71.436;2023-07-28T02:53:00;8.07;7.70;5.50
64861;PMS5003;62652;42.274;-71.436;2023-07-28T02:54:00;7.47;7.47;4.77
64861;PMS5003;62652;42.274;-71.436;2023-07-28T02:55:01;8.60;8.60;4.83
64861;PMS5003;62652;42.274;-71.436;2023-07-28T02:56:00;7.20;7.20;5.20
64861;PMS5003;62652;42.274;-71.436;2023-07-28T02:57:00;7.70;7.70;4.10
64861;PMS5003;62652;42.274;-71.436;2023-07-28T02:58:00;9.37;9.37;6.77
64861;PMS5003;62652;42.274;-71.436;2023-07-28T02:59:00;9.87;9.80;6.13
64861;PMS5003;62652;42.274;-71.436;2023-07-28T03:00:00;8.37;8.37;5.40
64861;PMS5003;62652;42.274;-71.436;2023-07-28T03:01:00;8.47;7.17;4.50
64861;PMS5003;62652;42.274;-71.436;2023-07-28T03:02:00;6.47;6.17;3.73
64861;PMS5003;62652;42.274;-71.436;2023-07-28T03:03:00;9.20;8.10;5.67
64861;PMS5003;62652;42.274;-71.436;2023-07-28T03:04:00;9.30;8.70;5.20
64861;PMS5003;62652;42.274;-71.436;2023-07-28T03:05:00;7.47;7.40;5.13
64861;PMS5003;62652;42.274;-71.436;2023-07-28T03:06:00;10.00;9.30;6.73
64861;PMS5003;62652;42.274;-71.436;2023-07-28T03:07:00;8.17;7.53;5.07
64861;PMS5003;62652;42.274;-71.436;2023-07-28T03:08:00;8.53;8.07;5.20
64861;PMS5003;62652;42.274;-71.436;2023-07-28T03:09:00;8.20;7.73;5.10
64861;PMS5003;62652;42.274;-71.436;2023-07-28T03:10:00;9.73;9.03;5.83
64861;PMS5003;62652;42.274;-71.436;2023-07-28T03:11:00;9.00;8.10;5.13
64861;PMS5003;62652;42.274;-71.436;2023-07-28T03:12:00;9.67;9.50;6.10
64861;PMS5003;62652;42.274;-71.436;2023-07-28T03:13:00;9.13;9.13;5.47
64861;PMS5003;62652;42.274;-71.436;2023-07-28T03:14:00;7.93;7.23;4.60
64861;PMS5003;62652;42.274;-71.436;2023-07-28T03:15:00;9.03;8.67;5.53
64861;PMS5003;62652;42.274;-71.436;2023-07-28T03:16:00;7.73;7.53;5.23
64861;PMS5003;62652;42.274;-71.436;2023-07-28T03:17:00;8.80;8.37;4.87
64861;PMS5003;62652;42.274;-71.436;2023-07-28T03:18:00;8.30;8.30;5.90
64861;PMS5003;62652;42.274;-71.436;2023-07-28T03:19:00;10.37;10.00;6.50
64861;PMS5003;62652;42.274;-71.436;2023-07-28T03:20:00;9.20;8.97;5.77
64861;PMS5003;62652;42.274;-71.436;2023-07-28T03:21:00;7.43;7.13;5.33
64861;PMS5003;62652;42.274;-71.436;2023-07-28T03:22:00;8.70;8.43;5.83
64861;PMS5003;62652;42.274;-71.436;2023-07-28T03:23:00;8.23;8.00;4.90
64861;PMS5003;62652;42.274;-71.436;2023-07-28T03:24:00;9.33;9.23;6.30
64861;PMS5003;62652;42.274;-71.436;2023-07-28T03:25:00;9.27;8.87;5.97
64861;PMS5003;62652;42.274;-71.436;2023-07-28T03:26:00;11.47;11.40;7.30
64861;PMS5003;62652;42.274;-71.436;2023-07-28T03:27:00;9.43;8.70;5.03
64861;PMS5003;62652;42.274;-71.436;2023-07-28T03:28:00;6.43;6.43;4.60
64861;PMS5003;62652;42.274;-71.436;2023-07-28T03:29:00;7.93;7.93;5.73
64861;PMS5003;62652;42.274;-71.436;2023-07-28T03:30:00;8.93;8.83;5.30
64861;PMS5003;62652;42.274;-71.436;2023-07-28T03:31:00;9.83;9.57;6.97
64861;PMS5003;62652;42.274;-71.436;2023-07-28T03:32:00;9.00;8.60;5.27
64861;PMS5003;62652;42.274;-71.436;2023-07-28T03:33:00;8.97;8.97;5.97
64861;PMS5003;62652;42.274;-71.436;2023-07-28T03:34:00;7.07;6.97;5.00
64861;PMS5003;62652;42.274;-71.436;2023-07-28T03:35:00;8.73;8.00;4.83
64861;PMS5003;62652;42.274;-71.436;2023-07-28T03:36:00;10.00;9.77;6.27
64861;PMS5003;62652;42.274;-71.436;2023-07-28T03:37:00;10.67;10.23;6.83
64861;PMS5003;62652;42.274;-71.436;2023-07-28T03:38:00;7.83;7.47;5.33
64861;PMS5003;62652;42.274;-71.436;2023-07-28T03:39:00;12.23;11.03;6.70
64861;PMS5003;62652;42.274;-71.436;2023-07-28T03:40:00;10.07;9.43;6.10
64861;PMS5003;62652;42.274;-71.436;2023-07-28T03:41:00;10.80;9.67;5.57
64861;PMS5003;62652;42.274;-71.436;2023-07-28T03:42:00;9.80;9.60;6.50
64861;PMS5003;62652;42.274;-71.436;2023-07-28T03:43:02;8.87;8.23;4.70
64861;PMS5003;62652;42.274;-71.436;2023-07-28T03:44:00;10.67;10.47;6.80
64861;PMS5003;62652;42.274;-71.436;2023-07-28T03:45:00;10.90;9.93;5.90
64861;PMS5003;62652;42.274;-71.436;2023-07-28T03:46:00;11.40;10.23;6.00
64861;PMS5003;62652;42.274;-71.436;2023-07-28T03:47:00;10.83;10.83;6.77
64861;PMS5003;62652;42.274;-71.436;2023-07-28T03:48:00;9.10;8.00;5.40
64861;PMS5003;62652;42.274;-71.436;2023-07-28T03:49:00;8.83;8.63;5.77
64861;PMS5003;62652;42.274;-71.436;2023-07-28T03:50:00;9.30;8.73;5.53
64861;PMS5003;62652;42.274;-71.436;2023-07-28T03:51:00;7.70;7.67;5.40
64861;PMS5003;62652;42.274;-71.436;2023-07-28T03:52:00;12.20;10.80;6.73
64861;PMS5003;62652;42.274;-71.436;2023-07-28T03:53:00;10.27;10.27;6.70
64861;PMS5003;62652;42.274;-71.436;2023-07-28T03:54:00;8.73;8.73;5.67
64861;PMS5003;62652;42.274;-71.436;2023-07-28T03:55:00;11.60;10.90;7.60
64861;PMS5003;62652;42.274;-71.436;2023-07-28T03:56:00;9.20;9.10;6.03
64861;PMS5003;62652;42.274;-71.436;2023-07-28T03:57:00;7.70;6.93;4.23
64861;PMS5003;62652;42.274;-71.436;2023-07-28T03:58:00;10.63;10.43;7.03
64861;PMS5003;62652;42.274;-71.436;2023-07-28T03:59:00;10.37;10.37;6.07
64861;PMS5003;62652;42.274;-71.436;2023-07-28T04:00:00;8.83;8.20;5.30
64861;PMS5003;62652;42.274;-71.436;2023-07-28T04:01:01;10.10;9.43;6.77
64861;PMS5003;62652;42.274;-71.436;2023-07-28T04:02:00;11.80;11.47;7.73
64861;PMS5003;62652;42.274;-71.436;2023-07-28T04:03:00;9.67;8.43;6.20
64861;PMS5003;62652;42.274;-71.436;2023-07-28T04:04:00;10.13;9.40;6.80
64861;PMS5003;62652;42.274;-71.436;2023-07-28T04:05:00;10.70;10.70;6.87
64861;PMS5003;62652;42.274;-71.436;2023-07-28T04:06:00;9.37;9.37;6.67
64861;PMS5003;62652;42.274;-71.436;2023-07-28T04:07:00;9.10;8.90;6.00
64861;PMS5003;62652;42.274;-71.436;2023-07-28T04:08:00;10.30;10.00;7.37
64861;PMS5003;62652;42.274;-71.436;2023-07-28T04:09:00;10.60;9.73;6.37
64861;PMS5003;62652;42.274;-71.436;2023-07-28T04:10:00;10.17;9.50;6.80
64861;PMS5003;62652;42.274;-71.436;2023-07-28T04:11:00;9.97;9.53;6.27
64861;PMS5003;62652;42.274;-71.436;2023-07-28T04:12:01;11.97;11.00;7.37
64861;PMS5003;62652;42.274;-71.436;2023-07-28T04:13:00;11.47;11.07;6.63
64861;PMS5003;62652;42.274;-71.436;2023-07-28T04:14:00;10.47;9.50;5.97
64861;PMS5003;62652;42.274;-71.436;2023-07-28T04:15:00;10.60;10.40;6.70
64861;PMS5003;62652;42.274;-71.436;2023-07-28T04:16:00;9.93;9.57;7.37
64861;PMS5003;62652;42.274;-71.436;2023-07-28T04:17:00;9.87;9.87;6.40
64861;PMS5003;62652;42.274;-71.436;2023-07-28T04:18:00;10.67;10.67;7.10
64861;PMS5003;62652;42.274;-71.436;2023-07-28T04:19:00;8.63;8.63;6.63
64861;PMS5003;62652;42.274;-71.436;2023-07-28T04:20:00;11.83;11.53;7.73
64861;PMS5003;62652;42.274;-71.436;2023-07-28T04:21:00;11.33;10.43;6.27
64861;PMS5003;62652;42.274;-71.436;2023-07-28T04:22:00;12.17;11.43;8.60
64861;PMS5003;62652;42.274;-71.436;2023-07-28T04:23:00;12.57;11.73;8.30
64861;PMS5003;62652;42.274;-71.436;2023-07-28T04:24:00;11.60;10.83;7.33
64861;PMS5003;62652;42.274;-71.436;2023-07-28T04:25:00;11.03;10.53;8.13
64861;PMS5003;62652;42.274;-71.436;2023-07-28T04:26:00;9.67;9.67;6.93
64861;PMS5003;62652;42.274;-71.436;2023-07-28T04:27:00;9.27;9.27;6.87
64861;PMS5003;62652;42.274;-71.436;2023-07-28T04:28:00;11.07;11.07;6.10
64861;PMS5003;62652;42.274;-71.436;2023-07-28T04:29:00;10.37;9.97;7.00
64861;PMS5003;62652;42.274;-71.436;2023-07-28T04:30:00;12.20;12.20;8.17
64861;PMS5003;62652;42.274;-71.436;2023-07-28T04:31:00;11.13;10.97;6.73
64861;PMS5003;62652;42.274;-71.436;2023-07-28T04:32:00;11.77;10.53;6.70
64861;PMS5003;62652;42.274;-71.436;2023-07-28T04:33:00;11.23;10.77;6.60
64861;PMS5003;62652;42.274;-71.436;2023-07-28T04:34:01;11.70;10.97;6.83
64861;PMS5003;62652;42.274;-71.436;2023-07-28T04:35:00;13.40;12.80;7.83
64861;PMS5003;62652;42.274;-71.436;2023-07-28T04:36:01;10.20;10.10;6.40
64861;PMS5003;62652;42.274;-71.436;2023-07-28T04:37:00;11.60;11.27;7.60
64861;PMS5003;62652;42.274;-71.436;2023-07-28T04:38:00;10.93;10.30;6.13
64861;PMS5003;62652;42.274;-71.436;2023-07-28T04:39:00;9.43;9.23;5.87
64861;PMS5003;62652;42.274;-71.436;2023-07-28T04:40:00;10.17;10.00;6.33
64861;PMS5003;62652;42.274;-71.436;2023-07-28T04:41:00;10.13;9.93;6.17
64861;PMS5003;62652;42.274;-71.436;2023-07-28T04:42:00;9.97;9.83;6.90
64861;PMS5003;62652;42.274;-71.436;2023-07-28T04:43:00;11.07;10.70;7.00
64861;PMS5003;62652;42.274;-71.436;2023-07-28T04:44:00;12.70;11.90;8.33
64861;PMS5003;62652;42.274;-71.436;2023-07-28T04:45:00;10.13;9.93;6.77
64861;PMS5003;62652;42.274;-71.436;2023-07-28T04:46:00;8.63;8.33;5.13
64861;PMS5003;62652;42.274;-71.436;2023-07-28T04:47:00;11.00;11.00;7.53
64861;PMS5003;62652;42.274;-71.436;2023-07-28T04:48:00;10.27;8.87;6.33
64861;PMS5003;62652;42.274;-71.436;2023-07-28T04:49:00;11.70;11.70;7.33
64861;PMS5003;62652;42.274;-71.436;2023-07-28T04:50:00;10.20;10.10;7.20
64861;PMS5003;62652;42.274;-71.436;2023-07-28T04:51:00;9.13;9.03;5.23
64861;PMS5003;62652;42.274;-71.436;2023-07-28T04:52:00;10.27;10.27;7.17
64861;PMS5003;62652;42.274;-71.436;2023-07-28T04:53:00;11.50;10.77;6.83
64861;PMS5003;62652;42.274;-71.436;2023-07-28T04:54:00;12.07;11.50;8.23
64861;PMS5003;62652;42.274;-71.436;2023-07-28T04:55:00;11.10;11.07;6.83
64861;PMS5003;62652;42.274;-71.436;2023-07-28T04:56:01;12.70;12.37;7.97
64861;PMS5003;62652;42.274;-71.436;2023-07-28T04:57:00;10.87;9.87;6.90
64861;PMS5003;62652;42.274;-71.436;2023-07-28T04:58:00;12.70;11.80;6.50
64861;PMS5003;62652;42.274;-71.436;2023-07-28T04:59:00;8.93;8.70;5.90
64861;PMS5003;62652;42.274;-71.436;2023-07-28T05:00:00;10.23;9.57;6.97
64861;PMS5003;62652;42.274;-71.436;2023-07-28T05:01:00;8.77;8.77;6.13
64861;PMS5003;62652;42.274;-71.436;2023-07-28T05:02:00;11.13;10.43;7.37
64861;PMS5003;62652;42.274;-71.436;2023-07-28T05:03:00;10.57;10.40;6.93
64861;PMS5003;62652;42.274;-71.436;2023-07-28T05:04:00;11.47;9.73;6.97
64861;PMS5003;62652;42.274;-71.436;2023-07-28T05:05:00;9.77;9.67;6.93
64861;PMS5003;62652;42.274;-71.436;2023-07-28T05:06:00;10.17;9.33;6.63
64861;PMS5003;62652;42.274;-71.436;2023-07-28T05:07:00;10.03;9.57;6.00
64861;PMS5003;62652;42.274;-71.436;2023-07-28T05:08:00;12.17;12.07;8.20
64861;PMS5003;62652;42.274;-71.436;2023-07-28T05:09:00;11.20;10.27;7.43
64861;PMS5003;62652;42.274;-71.436;2023-07-28T05:10:00;10.37;9.97;6.60
64861;PMS5003;62652;42.274;-71.436;2023-07-28T05:11:00;11.90;11.57;6.87
64861;PMS5003;62652;42.274;-71.436;2023-07-28T05:12:00;10.87;10.67;7.47
64861;PMS5003;62652;42.274;-71.436;2023-07-28T05:13:00;12.17;12.07;7.40
64861;PMS5003;62652;42.274;-71.436;2023-07-28T05:14:00;10.43;10.23;6.80
64861;PMS5003;62652;42.274;-71.436;2023-07-28T05:15:00;14.97;12.30;7.53
64861;PMS5003;62652;42.274;-71.436;2023-07-28T05:16:00;11.73;10.37;7.20
64861;PMS5003;62652;42.274;-71.436;2023-07-28T05:17:00;10.63;10.10;6.23
64861;PMS5003;62652;42.274;-71.436;2023-07-28T05:18:00;12.03;11.43;7.30
64861;PMS5003;62652;42.274;-71.436;2023-07-28T05:19:00;10.00;9.60;6.70
64861;PMS5003;62652;42.274;-71.436;2023-07-28T05:20:00;11.13;10.03;7.23
64861;PMS5003;62652;42.274;-71.436;2023-07-28T05:21:00;12.90;12.70;6.30
64861;PMS5003;62652;42.274;-71.436;2023-07-28T05:22:00;12.13;11.13;7.03
64861;PMS5003;62652;42.274;-71.436;2023-07-28T05:23:00;10.57;10.57;7.50
64861;PMS5003;62652;42.274;-71.436;2023-07-28T05:24:00;10.10;9.83;6.67
64861;PMS5003;62652;42.274;-71.436;2023-07-28T05:25:00;13.00;11.70;8.80
64861;PMS5003;62652;42.274;-71.436;2023-07-28T05:26:00;10.90;10.27;6.97
64861;PMS5003;62652;42.274;-71.436;2023-07-28T05:27:00;10.07;9.00;6.60
64861;PMS5003;62652;42.274;-71.436;2023-07-28T05:28:00;11.43;10.13;7.33
64861;PMS5003;62652;42.274;-71.436;2023-07-28T05:29:00;11.17;11.17;7.27
64861;PMS5003;62652;42.274;-71.436;2023-07-28T05:30:00;8.87;8.77;6.17
64861;PMS5003;62652;42.274;-71.436;2023-07-28T05:31:03;10.83;10.00;7.03
64861;PMS5003;62652;42.274;-71.436;2023-07-28T05:32:00;10.00;9.87;6.03
64861;PMS5003;62652;42.274;-71.436;2023-07-28T05:33:00;11.93;11.27;7.63
64861;PMS5003;62652;42.274;-71.436;2023-07-28T05:34:00;9.73;9.73;6.40
64861;PMS5003;62652;42.274;-71.436;2023-07-28T05:35:00;11.90;10.63;6.77
64861;PMS5003;62652;42.274;-71.436;2023-07-28T05:36:01;9.10;8.90;5.57
64861;PMS5003;62652;42.274;-71.436;2023-07-28T05:37:00;11.67;10.50;6.77